sensor_id;sensor_type;location;lat;lon;timestamp;P1;durP1;ratioP1;P2;durP2;ratioP2
64623;SDS011;51031;50.912;9.242;2022-07-09T00:00:10;35.23;;;24.83;;
64623;SDS011;51031;50.912;9.242;2022-07-09T00:00:26;35.17;;;24.63;;
64623;SDS011;51031;50.912;9.242;2022-07-09T00:00:42;28.90;;;20.05;;
64623;SDS011;51031;50.912;9.242;2022-07-09T00:00:58;16.67;;;10.73;;
64623;SDS011;51031;50.912;9.242;2022-07-09T00:01:14;9.25;;;5.28;;
64623;SDS011;51031;50.912;9.242;2022-07-09T00:01:30;6.18;;;2.72;;
64623;SDS011;51031;50.912;9.242;2022-07-09T00:01:46;10.60;;;5.13;;
64623;SDS011;51031;50.912;9.242;2022-07-09T00:02:02;13.18;;;6.70;;
64623;SDS011;51031;50.912;9.242;2022-07-09T00:02:18;16.13;;;10.38;;
64623;SDS011;51031;50.912;9.242;2022-07-09T00:02:34;24.95;;;17.02;;
64623;SDS011;51031;50.912;9.242;2022-07-09T00:02:50;33.97;;;23.50;;
64623;SDS011;51031;50.912;9.242;2022-07-09T00:03:07;32.20;;;22.15;;
64623;SDS011;51031;50.912;9.242;2022-07-09T00:03:22;28.73;;;19.83;;
64623;SDS011;51031;50.912;9.242;2022-07-09T00:03:40;32.80;;;23.00;;
64623;SDS011;51031;50.912;9.242;2022-07-09T00:03:56;37.38;;;25.67;;
64623;SDS011;51031;50.912;9.242;2022-07-09T00:04:13;38.83;;;27.05;;
64623;SDS011;51031;50.912;9.242;2022-07-09T00:04:29;35.13;;;25.45;;
64623;SDS011;51031;50.912;9.242;2022-07-09T00:04:45;30.58;;;22.20;;
64623;SDS011;51031;50.912;9.242;2022-07-09T00:05:00;24.17;;;16.67;;
64623;SDS011;51031;50.912;9.242;2022-07-09T00:05:16;24.27;;;16.10;;
64623;SDS011;51031;50.912;9.242;2022-07-09T00:05:32;23.87;;;15.03;;
64623;SDS011;51031;50.912;9.242;2022-07-09T00:05:49;23.83;;;15.48;;
64623;SDS011;51031;50.912;9.242;2022-07-09T00:06:05;20.40;;;13.68;;
64623;SDS011;51031;50.912;9.242;2022-07-09T00:06:21;20.75;;;13.27;;
64623;SDS011;51031;50.912;9.242;2022-07-09T00:06:36;20.67;;;13.15;;
64623;SDS011;51031;50.912;9.242;2022-07-09T00:06:52;21.80;;;14.13;;
64623;SDS011;51031;50.912;9.242;2022-07-09T00:07:09;21.83;;;14.38;;
64623;SDS011;51031;50.912;9.242;2022-07-09T00:07:25;21.98;;;14.75;;
64623;SDS011;51031;50.912;9.242;2022-07-09T00:07:41;24.73;;;16.73;;
64623;SDS011;51031;50.912;9.242;2022-07-09T00:07:57;19.90;;;12.95;;
64623;SDS011;51031;50.912;9.242;2022-07-09T00:08:13;17.23;;;11.10;;
64623;SDS011;51031;50.912;9.242;2022-07-09T00:08:29;26.17;;;17.80;;
64623;SDS011;51031;50.912;9.242;2022-07-09T00:08:45;34.70;;;24.20;;
64623;SDS011;51031;50.912;9.242;2022-07-09T00:09:01;25.88;;;17.92;;
64623;SDS011;51031;50.912;9.242;2022-07-09T00:09:17;20.40;;;13.57;;
64623;SDS011;51031;50.912;9.242;2022-07-09T00:09:33;21.77;;;14.57;;
64623;SDS011;51031;50.912;9.242;2022-07-09T00:09:49;20.40;;;13.97;;
64623;SDS011;51031;50.912;9.242;2022-07-09T00:10:07;15.77;;;10.02;;
64623;SDS011;51031;50.912;9.242;2022-07-09T00:10:23;15.02;;;9.02;;
64623;SDS011;51031;50.912;9.242;2022-07-09T00:10:39;23.73;;;15.93;;
64623;SDS011;51031;50.912;9.242;2022-07-09T00:10:54;27.08;;;18.85;;
64623;SDS011;51031;50.912;9.242;2022-07-09T00:11:10;31.20;;;21.75;;
64623;SDS011;51031;50.912;9.242;2022-07-09T00:11:27;34.28;;;23.33;;
64623;SDS011;51031;50.912;9.242;2022-07-09T00:11:43;34.47;;;23.92;;
64623;SDS011;51031;50.912;9.242;2022-07-09T00:11:59;32.50;;;22.75;;
64623;SDS011;51031;50.912;9.242;2022-07-09T00:12:14;22.90;;;15.60;;
64623;SDS011;51031;50.912;9.242;2022-07-09T00:12:30;20.50;;;13.88;;
64623;SDS011;51031;50.912;9.242;2022-07-09T00:12:47;32.40;;;22.77;;
64623;SDS011;51031;50.912;9.242;2022-07-09T00:13:03;23.73;;;16.23;;
64623;SDS011;51031;50.912;9.242;2022-07-09T00:13:19;14.73;;;8.90;;
64623;SDS011;51031;50.912;9.242;2022-07-09T00:13:34;27.30;;;18.42;;
64623;SDS011;51031;50.912;9.242;2022-07-09T00:13:52;34.47;;;24.73;;
64623;SDS011;51031;50.912;9.242;2022-07-09T00:14:07;33.50;;;23.85;;
64623;SDS011;51031;50.912;9.242;2022-07-09T00:14:24;21.10;;;14.45;;
64623;SDS011;51031;50.912;9.242;2022-07-09T00:14:40;23.00;;;15.93;;
64623;SDS011;51031;50.912;9.242;2022-07-09T00:14:56;34.80;;;24.35;;
64623;SDS011;51031;50.912;9.242;2022-07-09T00:15:12;35.88;;;24.48;;
64623;SDS011;51031;50.912;9.242;2022-07-09T00:15:27;35.10;;;24.20;;
64623;SDS011;51031;50.912;9.242;2022-07-09T00:15:43;35.37;;;24.87;;
64623;SDS011;51031;50.912;9.242;2022-07-09T00:16:00;38.28;;;27.50;;
64623;SDS011;51031;50.912;9.242;2022-07-09T00:16:16;33.38;;;23.52;;
64623;SDS011;51031;50.912;9.242;2022-07-09T00:16:32;23.65;;;15.75;;
64623;SDS011;51031;50.912;9.242;2022-07-09T00:16:48;31.40;;;21.92;;
64623;SDS011;51031;50.912;9.242;2022-07-09T00:17:04;25.57;;;17.77;;
64623;SDS011;51031;50.912;9.242;2022-07-09T00:17:20;15.93;;;10.15;;
64623;SDS011;51031;50.912;9.242;2022-07-09T00:17:37;23.58;;;15.63;;
64623;SDS011;51031;50.912;9.242;2022-07-09T00:17:52;29.95;;;20.75;;
64623;SDS011;51031;50.912;9.242;2022-07-09T00:18:08;31.15;;;21.48;;
64623;SDS011;51031;50.912;9.242;2022-07-09T00:18:24;32.80;;;22.73;;
64623;SDS011;51031;50.912;9.242;2022-07-09T00:18:40;45.20;;;31.08;;
64623;SDS011;51031;50.912;9.242;2022-07-09T00:18:56;98.77;;;67.47;;
64623;SDS011;51031;50.912;9.242;2022-07-09T00:19:12;103.15;;;71.05;;
64623;SDS011;51031;50.912;9.242;2022-07-09T00:19:29;68.35;;;48.17;;
64623;SDS011;51031;50.912;9.242;2022-07-09T00:19:47;85.07;;;58.97;;
64623;SDS011;51031;50.912;9.242;2022-07-09T00:20:05;112.22;;;76.65;;
64623;SDS011;51031;50.912;9.242;2022-07-09T00:20:22;119.63;;;81.50;;
64623;SDS011;51031;50.912;9.242;2022-07-09T00:20:38;123.22;;;82.30;;
64623;SDS011;51031;50.912;9.242;2022-07-09T00:20:55;96.35;;;64.88;;
64623;SDS011;51031;50.912;9.242;2022-07-09T00:21:10;89.18;;;60.40;;
64623;SDS011;51031;50.912;9.242;2022-07-09T00:21:26;101.30;;;68.97;;
64623;SDS011;51031;50.912;9.242;2022-07-09T00:21:42;130.02;;;87.28;;
64623;SDS011;51031;50.912;9.242;2022-07-09T00:21:58;185.90;;;122.55;;
64623;SDS011;51031;50.912;9.242;2022-07-09T00:22:14;188.50;;;124.57;;
64623;SDS011;51031;50.912;9.242;2022-07-09T00:22:31;171.05;;;113.10;;
64623;SDS011;51031;50.912;9.242;2022-07-09T00:22:47;162.10;;;107.60;;
64623;SDS011;51031;50.912;9.242;2022-07-09T00:23:02;132.00;;;87.43;;
64623;SDS011;51031;50.912;9.242;2022-07-09T00:23:18;129.60;;;85.18;;
64623;SDS011;51031;50.912;9.242;2022-07-09T00:23:34;149.48;;;99.60;;
64623;SDS011;51031;50.912;9.242;2022-07-09T00:23:50;111.33;;;75.30;;
64623;SDS011;51031;50.912;9.242;2022-07-09T00:24:06;87.32;;;58.45;;
64623;SDS011;51031;50.912;9.242;2022-07-09T00:24:22;100.10;;;66.20;;
64623;SDS011;51031;50.912;9.242;2022-07-09T00:24:38;192.15;;;125.75;;
64623;SDS011;51031;50.912;9.242;2022-07-09T00:24:54;222.75;;;145.98;;
64623;SDS011;51031;50.912;9.242;2022-07-09T00:25:09;191.13;;;127.28;;
64623;SDS011;51031;50.912;9.242;2022-07-09T00:25:25;194.35;;;130.75;;
64623;SDS011;51031;50.912;9.242;2022-07-09T00:25:42;200.48;;;135.88;;
64623;SDS011;51031;50.912;9.242;2022-07-09T00:25:58;210.87;;;141.17;;
64623;SDS011;51031;50.912;9.242;2022-07-09T00:26:14;258.85;;;174.10;;
64623;SDS011;51031;50.912;9.242;2022-07-09T00:26:31;259.27;;;175.32;;
64623;SDS011;51031;50.912;9.242;2022-07-09T00:26:47;196.30;;;131.57;;
64623;SDS011;51031;50.912;9.242;2022-07-09T00:27:04;195.63;;;130.45;;
64623;SDS011;51031;50.912;9.242;2022-07-09T00:27:20;259.92;;;174.25;;
64623;SDS011;51031;50.912;9.242;2022-07-09T00:27:36;246.25;;;167.20;;
64623;SDS011;51031;50.912;9.242;2022-07-09T00:27:52;253.77;;;171.95;;
64623;SDS011;51031;50.912;9.242;2022-07-09T00:28:10;297.55;;;205.60;;
64623;SDS011;51031;50.912;9.242;2022-07-09T00:28:26;304.17;;;211.80;;
64623;SDS011;51031;50.912;9.242;2022-07-09T00:28:43;319.45;;;223.68;;
64623;SDS011;51031;50.912;9.242;2022-07-09T00:29:00;330.83;;;229.88;;
64623;SDS011;51031;50.912;9.242;2022-07-09T00:29:16;325.83;;;226.27;;
64623;SDS011;51031;50.912;9.242;2022-07-09T00:29:31;317.17;;;220.65;;
64623;SDS011;51031;50.912;9.242;2022-07-09T00:29:47;325.88;;;227.45;;
64623;SDS011;51031;50.912;9.242;2022-07-09T00:30:04;365.67;;;259.50;;
64623;SDS011;51031;50.912;9.242;2022-07-09T00:30:23;258.87;;;181.00;;
64623;SDS011;51031;50.912;9.242;2022-07-09T00:30:39;284.88;;;199.73;;
64623;SDS011;51031;50.912;9.242;2022-07-09T00:30:55;360.85;;;258.23;;
64623;SDS011;51031;50.912;9.242;2022-07-09T00:31:11;352.88;;;252.52;;
64623;SDS011;51031;50.912;9.242;2022-07-09T00:31:26;347.35;;;246.57;;
64623;SDS011;51031;50.912;9.242;2022-07-09T00:31:43;341.25;;;241.68;;
64623;SDS011;51031;50.912;9.242;2022-07-09T00:32:03;346.63;;;246.98;;
64623;SDS011;51031;50.912;9.242;2022-07-09T00:32:23;351.98;;;251.88;;
64623;SDS011;51031;50.912;9.242;2022-07-09T00:32:38;349.20;;;250.43;;
64623;SDS011;51031;50.912;9.242;2022-07-09T00:32:54;286.88;;;204.40;;
64623;SDS011;51031;50.912;9.242;2022-07-09T00:33:12;143.07;;;98.33;;
64623;SDS011;51031;50.912;9.242;2022-07-09T00:33:28;156.85;;;108.03;;
64623;SDS011;51031;50.912;9.242;2022-07-09T00:33:44;277.88;;;197.13;;
64623;SDS011;51031;50.912;9.242;2022-07-09T00:34:00;376.53;;;271.03;;
64623;SDS011;51031;50.912;9.242;2022-07-09T00:34:15;397.35;;;285.38;;
64623;SDS011;51031;50.912;9.242;2022-07-09T00:34:31;298.27;;;210.57;;
64623;SDS011;51031;50.912;9.242;2022-07-09T00:34:48;194.73;;;133.55;;
64623;SDS011;51031;50.912;9.242;2022-07-09T00:35:05;199.68;;;136.65;;
64623;SDS011;51031;50.912;9.242;2022-07-09T00:35:21;251.43;;;175.98;;
64623;SDS011;51031;50.912;9.242;2022-07-09T00:35:37;391.05;;;278.40;;
64623;SDS011;51031;50.912;9.242;2022-07-09T00:35:53;447.05;;;317.85;;
64623;SDS011;51031;50.912;9.242;2022-07-09T00:36:09;414.93;;;292.37;;
64623;SDS011;51031;50.912;9.242;2022-07-09T00:36:25;395.05;;;279.63;;
64623;SDS011;51031;50.912;9.242;2022-07-09T00:36:41;393.27;;;279.67;;
64623;SDS011;51031;50.912;9.242;2022-07-09T00:36:57;400.80;;;284.10;;
64623;SDS011;51031;50.912;9.242;2022-07-09T00:37:12;428.50;;;306.33;;
64623;SDS011;51031;50.912;9.242;2022-07-09T00:37:28;431.92;;;310.65;;
64623;SDS011;51031;50.912;9.242;2022-07-09T00:37:45;439.17;;;316.42;;
64623;SDS011;51031;50.912;9.242;2022-07-09T00:38:01;440.70;;;316.60;;
64623;SDS011;51031;50.912;9.242;2022-07-09T00:38:16;435.83;;;310.50;;
64623;SDS011;51031;50.912;9.242;2022-07-09T00:38:32;442.70;;;316.85;;
64623;SDS011;51031;50.912;9.242;2022-07-09T00:38:48;459.30;;;332.02;;
64623;SDS011;51031;50.912;9.242;2022-07-09T00:39:04;471.33;;;338.30;;
64623;SDS011;51031;50.912;9.242;2022-07-09T00:39:21;463.42;;;332.35;;
64623;SDS011;51031;50.912;9.242;2022-07-09T00:39:36;443.35;;;321.98;;
64623;SDS011;51031;50.912;9.242;2022-07-09T00:39:53;481.17;;;348.50;;
64623;SDS011;51031;50.912;9.242;2022-07-09T00:40:09;499.05;;;359.90;;
64623;SDS011;51031;50.912;9.242;2022-07-09T00:40:25;501.95;;;362.27;;
64623;SDS011;51031;50.912;9.242;2022-07-09T00:40:42;503.25;;;361.38;;
64623;SDS011;51031;50.912;9.242;2022-07-09T00:40:58;507.25;;;362.70;;
64623;SDS011;51031;50.912;9.242;2022-07-09T00:41:14;500.67;;;358.27;;
64623;SDS011;51031;50.912;9.242;2022-07-09T00:41:29;475.23;;;340.10;;
64623;SDS011;51031;50.912;9.242;2022-07-09T00:41:45;478.23;;;343.80;;
64623;SDS011;51031;50.912;9.242;2022-07-09T00:42:03;508.77;;;368.52;;
64623;SDS011;51031;50.912;9.242;2022-07-09T00:42:19;497.13;;;361.65;;
64623;SDS011;51031;50.912;9.242;2022-07-09T00:42:35;513.53;;;374.38;;
64623;SDS011;51031;50.912;9.242;2022-07-09T00:42:51;523.13;;;378.58;;
64623;SDS011;51031;50.912;9.242;2022-07-09T00:43:14;530.23;;;385.00;;
64623;SDS011;51031;50.912;9.242;2022-07-09T00:43:32;537.72;;;394.77;;
64623;SDS011;51031;50.912;9.242;2022-07-09T00:43:48;506.67;;;370.00;;
64623;SDS011;51031;50.912;9.242;2022-07-09T00:44:09;532.33;;;389.73;;
64623;SDS011;51031;50.912;9.242;2022-07-09T00:44:24;519.60;;;380.10;;
64623;SDS011;51031;50.912;9.242;2022-07-09T00:44:40;517.65;;;378.88;;
64623;SDS011;51031;50.912;9.242;2022-07-09T00:44:56;532.43;;;387.40;;
64623;SDS011;51031;50.912;9.242;2022-07-09T00:45:13;533.63;;;388.25;;
64623;SDS011;51031;50.912;9.242;2022-07-09T00:45:29;542.25;;;398.63;;
64623;SDS011;51031;50.912;9.242;2022-07-09T00:45:44;540.47;;;400.73;;
64623;SDS011;51031;50.912;9.242;2022-07-09T00:46:01;534.90;;;392.27;;
64623;SDS011;51031;50.912;9.242;2022-07-09T00:46:17;537.80;;;395.00;;
64623;SDS011;51031;50.912;9.242;2022-07-09T00:46:33;524.13;;;388.13;;
64623;SDS011;51031;50.912;9.242;2022-07-09T00:46:49;528.45;;;386.67;;
64623;SDS011;51031;50.912;9.242;2022-07-09T00:47:08;551.95;;;404.58;;
64623;SDS011;51031;50.912;9.242;2022-07-09T00:47:24;548.40;;;406.63;;
64623;SDS011;51031;50.912;9.242;2022-07-09T00:47:39;546.13;;;407.07;;
64623;SDS011;51031;50.912;9.242;2022-07-09T00:47:55;550.53;;;411.40;;
64623;SDS011;51031;50.912;9.242;2022-07-09T00:48:12;554.47;;;412.67;;
64623;SDS011;51031;50.912;9.242;2022-07-09T00:48:29;497.08;;;374.25;;
64623;SDS011;51031;50.912;9.242;2022-07-09T00:48:44;454.88;;;342.55;;
64623;SDS011;51031;50.912;9.242;2022-07-09T00:49:01;552.72;;;414.98;;
64623;SDS011;51031;50.912;9.242;2022-07-09T00:49:19;512.97;;;386.33;;
64623;SDS011;51031;50.912;9.242;2022-07-09T00:49:36;518.60;;;390.88;;
64623;SDS011;51031;50.912;9.242;2022-07-09T00:49:55;420.90;;;310.42;;
64623;SDS011;51031;50.912;9.242;2022-07-09T00:50:11;444.98;;;324.25;;
64623;SDS011;51031;50.912;9.242;2022-07-09T00:50:27;551.78;;;411.25;;
64623;SDS011;51031;50.912;9.242;2022-07-09T00:50:43;558.20;;;418.92;;
64623;SDS011;51031;50.912;9.242;2022-07-09T00:51:00;560.50;;;423.85;;
64623;SDS011;51031;50.912;9.242;2022-07-09T00:51:17;565.65;;;428.10;;
64623;SDS011;51031;50.912;9.242;2022-07-09T00:51:33;550.10;;;412.50;;
64623;SDS011;51031;50.912;9.242;2022-07-09T00:51:49;553.65;;;414.38;;
64623;SDS011;51031;50.912;9.242;2022-07-09T00:52:05;573.63;;;436.98;;
64623;SDS011;51031;50.912;9.242;2022-07-09T00:52:22;583.25;;;450.42;;
64623;SDS011;51031;50.912;9.242;2022-07-09T00:52:38;590.70;;;459.80;;
64623;SDS011;51031;50.912;9.242;2022-07-09T00:52:56;581.33;;;452.87;;
64623;SDS011;51031;50.912;9.242;2022-07-09T00:53:12;566.33;;;439.27;;
64623;SDS011;51031;50.912;9.242;2022-07-09T00:53:30;498.80;;;373.08;;
64623;SDS011;51031;50.912;9.242;2022-07-09T00:53:46;462.70;;;340.15;;
64623;SDS011;51031;50.912;9.242;2022-07-09T00:54:03;377.02;;;277.38;;
64623;SDS011;51031;50.912;9.242;2022-07-09T00:54:20;497.50;;;377.42;;
64623;SDS011;51031;50.912;9.242;2022-07-09T00:54:36;574.53;;;439.40;;
64623;SDS011;51031;50.912;9.242;2022-07-09T00:54:54;577.90;;;442.23;;
64623;SDS011;51031;50.912;9.242;2022-07-09T00:55:15;584.13;;;452.60;;
64623;SDS011;51031;50.912;9.242;2022-07-09T00:55:31;509.38;;;391.80;;
64623;SDS011;51031;50.912;9.242;2022-07-09T00:55:47;253.90;;;192.35;;
64623;SDS011;51031;50.912;9.242;2022-07-09T00:56:04;173.27;;;124.07;;
64623;SDS011;51031;50.912;9.242;2022-07-09T00:56:21;456.63;;;342.90;;
64623;SDS011;51031;50.912;9.242;2022-07-09T00:56:38;496.52;;;374.10;;
64623;SDS011;51031;50.912;9.242;2022-07-09T00:56:54;463.40;;;340.25;;
64623;SDS011;51031;50.912;9.242;2022-07-09T00:57:10;385.55;;;279.02;;
64623;SDS011;51031;50.912;9.242;2022-07-09T00:57:26;355.30;;;253.82;;
64623;SDS011;51031;50.912;9.242;2022-07-09T00:57:44;457.63;;;330.05;;
64623;SDS011;51031;50.912;9.242;2022-07-09T00:58:01;455.05;;;330.20;;
64623;SDS011;51031;50.912;9.242;2022-07-09T00:58:16;459.80;;;335.00;;
64623;SDS011;51031;50.912;9.242;2022-07-09T00:58:35;531.60;;;402.42;;
64623;SDS011;51031;50.912;9.242;2022-07-09T00:58:50;533.80;;;404.20;;
64623;SDS011;51031;50.912;9.242;2022-07-09T00:59:09;600.30;;;464.88;;
64623;SDS011;51031;50.912;9.242;2022-07-09T00:59:27;535.55;;;410.90;;
64623;SDS011;51031;50.912;9.242;2022-07-09T00:59:43;300.95;;;222.43;;
64623;SDS011;51031;50.912;9.242;2022-07-09T00:59:59;239.55;;;171.30;;
64623;SDS011;51031;50.912;9.242;2022-07-09T01:00:16;482.10;;;366.33;;
64623;SDS011;51031;50.912;9.242;2022-07-09T01:00:34;563.72;;;440.98;;
64623;SDS011;51031;50.912;9.242;2022-07-09T01:00:51;524.03;;;403.02;;
64623;SDS011;51031;50.912;9.242;2022-07-09T01:01:07;568.33;;;436.27;;
64623;SDS011;51031;50.912;9.242;2022-07-09T01:01:22;551.72;;;420.70;;
64623;SDS011;51031;50.912;9.242;2022-07-09T01:01:38;594.43;;;464.03;;
64623;SDS011;51031;50.912;9.242;2022-07-09T01:01:55;565.47;;;442.38;;
64623;SDS011;51031;50.912;9.242;2022-07-09T01:02:11;557.38;;;430.48;;
64623;SDS011;51031;50.912;9.242;2022-07-09T01:02:28;610.30;;;479.25;;
64623;SDS011;51031;50.912;9.242;2022-07-09T01:02:44;533.47;;;413.10;;
64623;SDS011;51031;50.912;9.242;2022-07-09T01:03:00;536.28;;;411.15;;
64623;SDS011;51031;50.912;9.242;2022-07-09T01:03:16;511.63;;;389.95;;
64623;SDS011;51031;50.912;9.242;2022-07-09T01:03:32;377.20;;;282.27;;
64623;SDS011;51031;50.912;9.242;2022-07-09T01:03:48;508.02;;;391.10;;
64623;SDS011;51031;50.912;9.242;2022-07-09T01:04:05;622.05;;;490.73;;
64623;SDS011;51031;50.912;9.242;2022-07-09T01:04:21;625.72;;;494.45;;
64623;SDS011;51031;50.912;9.242;2022-07-09T01:04:37;581.15;;;459.65;;
64623;SDS011;51031;50.912;9.242;2022-07-09T01:04:54;476.15;;;364.52;;
64623;SDS011;51031;50.912;9.242;2022-07-09T01:05:10;533.97;;;406.00;;
64623;SDS011;51031;50.912;9.242;2022-07-09T01:05:27;592.95;;;460.52;;
64623;SDS011;51031;50.912;9.242;2022-07-09T01:05:46;449.67;;;342.98;;
64623;SDS011;51031;50.912;9.242;2022-07-09T01:06:02;368.05;;;272.15;;
64623;SDS011;51031;50.912;9.242;2022-07-09T01:06:18;357.55;;;261.40;;
64623;SDS011;51031;50.912;9.242;2022-07-09T01:06:34;241.07;;;174.45;;
64623;SDS011;51031;50.912;9.242;2022-07-09T01:06:49;303.83;;;219.35;;
64623;SDS011;51031;50.912;9.242;2022-07-09T01:07:05;510.10;;;380.17;;
64623;SDS011;51031;50.912;9.242;2022-07-09T01:07:22;607.85;;;474.75;;
64623;SDS011;51031;50.912;9.242;2022-07-09T01:07:38;610.13;;;480.33;;
64623;SDS011;51031;50.912;9.242;2022-07-09T01:07:54;582.55;;;452.67;;
64623;SDS011;51031;50.912;9.242;2022-07-09T01:08:10;519.80;;;399.92;;
64623;SDS011;51031;50.912;9.242;2022-07-09T01:08:26;457.58;;;344.08;;
64623;SDS011;51031;50.912;9.242;2022-07-09T01:08:42;465.70;;;349.70;;
64623;SDS011;51031;50.912;9.242;2022-07-09T01:08:58;545.70;;;414.73;;
64623;SDS011;51031;50.912;9.242;2022-07-09T01:09:14;505.48;;;381.08;;
64623;SDS011;51031;50.912;9.242;2022-07-09T01:09:30;556.23;;;431.03;;
64623;SDS011;51031;50.912;9.242;2022-07-09T01:09:46;502.02;;;381.35;;
64623;SDS011;51031;50.912;9.242;2022-07-09T01:10:03;531.72;;;407.77;;
64623;SDS011;51031;50.912;9.242;2022-07-09T01:10:20;622.00;;;493.80;;
64623;SDS011;51031;50.912;9.242;2022-07-09T01:10:36;583.03;;;455.10;;
64623;SDS011;51031;50.912;9.242;2022-07-09T01:10:52;583.92;;;451.65;;
64623;SDS011;51031;50.912;9.242;2022-07-09T01:11:08;615.25;;;481.60;;
64623;SDS011;51031;50.912;9.242;2022-07-09T01:11:24;563.30;;;435.60;;
64623;SDS011;51031;50.912;9.242;2022-07-09T01:11:40;569.70;;;440.60;;
64623;SDS011;51031;50.912;9.242;2022-07-09T01:11:57;578.83;;;449.42;;
64623;SDS011;51031;50.912;9.242;2022-07-09T01:12:13;584.78;;;454.63;;
64623;SDS011;51031;50.912;9.242;2022-07-09T01:12:29;621.70;;;490.45;;
64623;SDS011;51031;50.912;9.242;2022-07-09T01:12:46;617.50;;;490.50;;
64623;SDS011;51031;50.912;9.242;2022-07-09T01:13:02;616.72;;;489.85;;
64623;SDS011;51031;50.912;9.242;2022-07-09T01:13:20;537.65;;;419.30;;
64623;SDS011;51031;50.912;9.242;2022-07-09T01:13:36;571.53;;;442.90;;
64623;SDS011;51031;50.912;9.242;2022-07-09T01:13:51;621.97;;;491.05;;
64623;SDS011;51031;50.912;9.242;2022-07-09T01:14:09;600.15;;;472.10;;
64623;SDS011;51031;50.912;9.242;2022-07-09T01:14:26;570.38;;;436.75;;
64623;SDS011;51031;50.912;9.242;2022-07-09T01:14:42;553.92;;;429.33;;
64623;SDS011;51031;50.912;9.242;2022-07-09T01:14:59;512.17;;;397.65;;
64623;SDS011;51031;50.912;9.242;2022-07-09T01:15:14;580.42;;;447.83;;
64623;SDS011;51031;50.912;9.242;2022-07-09T01:15:30;600.67;;;468.15;;
64623;SDS011;51031;50.912;9.242;2022-07-09T01:15:46;622.67;;;491.13;;
64623;SDS011;51031;50.912;9.242;2022-07-09T01:16:02;624.47;;;491.98;;
64623;SDS011;51031;50.912;9.242;2022-07-09T01:16:19;609.75;;;476.48;;
64623;SDS011;51031;50.912;9.242;2022-07-09T01:16:35;602.78;;;470.33;;
64623;SDS011;51031;50.912;9.242;2022-07-09T01:16:58;605.03;;;469.67;;
64623;SDS011;51031;50.912;9.242;2022-07-09T01:17:15;618.55;;;484.58;;
64623;SDS011;51031;50.912;9.242;2022-07-09T01:17:36;624.75;;;490.23;;
64623;SDS011;51031;50.912;9.242;2022-07-09T01:17:52;639.58;;;504.08;;
64623;SDS011;51031;50.912;9.242;2022-07-09T01:18:10;630.50;;;499.05;;
64623;SDS011;51031;50.912;9.242;2022-07-09T01:18:26;624.63;;;495.60;;
64623;SDS011;51031;50.912;9.242;2022-07-09T01:18:43;627.40;;;497.25;;
64623;SDS011;51031;50.912;9.242;2022-07-09T01:18:59;630.22;;;499.30;;
64623;SDS011;51031;50.912;9.242;2022-07-09T01:19:15;631.88;;;504.75;;
64623;SDS011;51031;50.912;9.242;2022-07-09T01:19:31;629.97;;;505.38;;
64623;SDS011;51031;50.912;9.242;2022-07-09T01:19:47;632.65;;;502.75;;
64623;SDS011;51031;50.912;9.242;2022-07-09T01:20:04;633.67;;;500.05;;
64623;SDS011;51031;50.912;9.242;2022-07-09T01:20:23;629.22;;;496.58;;
64623;SDS011;51031;50.912;9.242;2022-07-09T01:20:40;630.00;;;500.48;;
64623;SDS011;51031;50.912;9.242;2022-07-09T01:20:56;633.42;;;507.15;;
64623;SDS011;51031;50.912;9.242;2022-07-09T01:21:12;613.90;;;481.48;;
64623;SDS011;51031;50.912;9.242;2022-07-09T01:21:28;610.33;;;470.20;;
64623;SDS011;51031;50.912;9.242;2022-07-09T01:21:43;627.43;;;490.93;;
64623;SDS011;51031;50.912;9.242;2022-07-09T01:22:00;617.30;;;481.40;;
64623;SDS011;51031;50.912;9.242;2022-07-09T01:22:16;608.47;;;474.42;;
64623;SDS011;51031;50.912;9.242;2022-07-09T01:22:32;613.47;;;483.73;;
64623;SDS011;51031;50.912;9.242;2022-07-09T01:22:48;626.88;;;498.88;;
64623;SDS011;51031;50.912;9.242;2022-07-09T01:23:04;628.60;;;499.05;;
64623;SDS011;51031;50.912;9.242;2022-07-09T01:23:20;610.63;;;478.15;;
64623;SDS011;51031;50.912;9.242;2022-07-09T01:23:37;614.28;;;483.90;;
64623;SDS011;51031;50.912;9.242;2022-07-09T01:23:53;622.20;;;492.43;;
64623;SDS011;51031;50.912;9.242;2022-07-09T01:24:08;611.85;;;480.25;;
64623;SDS011;51031;50.912;9.242;2022-07-09T01:24:24;605.92;;;475.80;;
64623;SDS011;51031;50.912;9.242;2022-07-09T01:24:41;622.10;;;495.00;;
64623;SDS011;51031;50.912;9.242;2022-07-09T01:24:56;622.67;;;491.25;;
64623;SDS011;51031;50.912;9.242;2022-07-09T01:25:14;611.28;;;476.00;;
64623;SDS011;51031;50.912;9.242;2022-07-09T01:25:33;606.53;;;472.35;;
64623;SDS011;51031;50.912;9.242;2022-07-09T01:25:51;606.95;;;473.25;;
64623;SDS011;51031;50.912;9.242;2022-07-09T01:26:10;619.53;;;489.35;;
64623;SDS011;51031;50.912;9.242;2022-07-09T01:26:26;613.03;;;483.00;;
64623;SDS011;51031;50.912;9.242;2022-07-09T01:26:42;616.03;;;484.02;;
64623;SDS011;51031;50.912;9.242;2022-07-09T01:26:58;627.13;;;492.90;;
64623;SDS011;51031;50.912;9.242;2022-07-09T01:27:17;626.30;;;495.33;;
64623;SDS011;51031;50.912;9.242;2022-07-09T01:27:33;630.97;;;501.63;;
64623;SDS011;51031;50.912;9.242;2022-07-09T01:27:49;635.58;;;504.58;;
64623;SDS011;51031;50.912;9.242;2022-07-09T01:28:06;630.33;;;500.33;;
64623;SDS011;51031;50.912;9.242;2022-07-09T01:28:24;618.05;;;490.55;;
64623;SDS011;51031;50.912;9.242;2022-07-09T01:28:40;585.75;;;458.73;;
64623;SDS011;51031;50.912;9.242;2022-07-09T01:28:57;596.58;;;465.70;;
64623;SDS011;51031;50.912;9.242;2022-07-09T01:29:13;607.47;;;473.00;;
64623;SDS011;51031;50.912;9.242;2022-07-09T01:29:28;603.85;;;466.85;;
64623;SDS011;51031;50.912;9.242;2022-07-09T01:29:44;607.05;;;473.38;;
64623;SDS011;51031;50.912;9.242;2022-07-09T01:30:05;606.75;;;474.10;;
64623;SDS011;51031;50.912;9.242;2022-07-09T01:30:23;594.95;;;460.48;;
64623;SDS011;51031;50.912;9.242;2022-07-09T01:30:40;615.05;;;486.75;;
64623;SDS011;51031;50.912;9.242;2022-07-09T01:30:56;599.10;;;471.75;;
64623;SDS011;51031;50.912;9.242;2022-07-09T01:31:12;582.40;;;452.85;;
64623;SDS011;51031;50.912;9.242;2022-07-09T01:31:29;619.75;;;486.33;;
64623;SDS011;51031;50.912;9.242;2022-07-09T01:31:47;609.78;;;476.45;;
64623;SDS011;51031;50.912;9.242;2022-07-09T01:32:03;587.97;;;455.23;;
64623;SDS011;51031;50.912;9.242;2022-07-09T01:32:19;585.88;;;453.98;;
64623;SDS011;51031;50.912;9.242;2022-07-09T01:32:35;605.63;;;473.10;;
64623;SDS011;51031;50.912;9.242;2022-07-09T01:32:52;581.30;;;447.02;;
64623;SDS011;51031;50.912;9.242;2022-07-09T01:33:09;574.92;;;442.80;;
64623;SDS011;51031;50.912;9.242;2022-07-09T01:33:25;593.70;;;461.23;;
64623;SDS011;51031;50.912;9.242;2022-07-09T01:33:41;609.40;;;475.47;;
64623;SDS011;51031;50.912;9.242;2022-07-09T01:33:57;617.72;;;483.00;;
64623;SDS011;51031;50.912;9.242;2022-07-09T01:34:13;547.28;;;416.88;;